Latest Weather Observations for Lucas Heights

IDN60801

Issued at 3:32 pm EST Sunday 24 May 2015 (issued every 30 minutes, with the page automatically refreshed every 10 minutes)

About weather observations | Map of weather stations | Latest weather observations for NSW | Other Formats
Station Details ID: 066023 Name: LUCAS HEIGHTS AWS Lat: -34.05 Lon: 150.98 Height: 140.0 m
Data from the previous 72 hours. | See also: Recent months for locations in New South Wales
Date/Time
EST
Temp
°C
App
Temp
°C
Dew
Point
Rel
Hum
%
Delta-T
°C
Wind Press
QNH
hPa
Press
MSL
hPa
Rain
since 9 am
mm
Dir
 
Spd
km/h
Gust
km/h
Spd
kts
Gust
kts
24/03:15pm 17.5 16.3 9.4 59 4.3 SE 6 9 3 5 1030.8 - 0.0
24/03:00pm 18.1 17.2 9.3 56 4.6 S 4 7 2 4 1030.8 - 0.0
24/02:45pm 17.9 17.1 9.5 58 4.4 NNW 4 7 2 4 1030.9 - 0.0
24/02:30pm 17.5 16.6 9.2 58 4.4 N 4 7 2 4 1030.8 - 0.0
24/02:15pm 16.7 16.6 9.6 63 3.7 CALM 0 2 0 1 1030.8 - 0.0
24/02:00pm 16.2 15.3 9.1 63 3.7 SSW 4 6 2 3 1030.7 - 0.0
24/01:45pm 16.5 15.9 8.8 60 4.0 SW 2 4 1 2 1030.7 - 0.0
24/01:30pm 16.9 16.3 8.9 59 4.2 N 2 7 1 4 1030.7 - 0.0
24/01:15pm 16.9 16.4 9.2 60 4.0 ENE 2 4 1 2 1030.8 - 0.0
24/01:00pm 16.4 15.8 8.8 60 3.9 NE 2 6 1 3 1030.9 - 0.0
24/12:45pm 16.5 16.0 9.2 62 3.8 SE 2 7 1 4 1031.0 - 0.0
24/12:30pm 16.5 14.9 8.7 60 4.0 SE 7 13 4 7 1031.2 - 0.0
24/12:15pm 17.0 15.5 9.0 59 4.2 SE 7 13 4 7 1031.3 - 0.0
24/12:00pm 16.3 14.8 8.5 60 4.0 SE 6 9 3 5 1031.7 - 0.0
24/11:45am 16.6 15.0 8.8 60 4.0 SSE 7 13 4 7 1031.9 - 0.0
24/11:30am 17.0 15.5 9.1 59 4.1 S 7 13 4 7 1032.1 - 0.0
24/11:15am 16.7 15.2 9.3 61 3.9 S 7 13 4 7 1032.2 - 0.0
24/11:00am 16.3 14.5 9.6 64 3.5 S 9 13 5 7 1032.3 - 0.0
24/10:45am 15.8 14.6 9.4 65 3.3 SSE 6 13 3 7 1032.4 - 0.0
24/10:30am 15.4 14.3 9.8 69 2.9 SW 6 9 3 5 1032.5 - 0.0
24/10:15am 14.5 12.7 9.3 71 2.7 SW 9 11 5 6 1032.6 - 0.0
24/10:00am 14.4 12.3 9.8 74 2.4 SSW 11 17 6 9 1032.6 - 0.0
24/09:45am 13.7 11.3 10.1 79 1.9 SSW 13 19 7 10 1032.6 - 0.0
24/09:30am 12.1 10.3 9.5 84 1.3 SSW 9 17 5 9 1032.6 - 0.0
24/09:15am 10.8 8.7 8.3 84 1.2 SSW 9 15 5 8 1032.5 - 0.0
24/09:00am 10.2 8.0 7.8 85 1.2 SSW 9 17 5 9 1032.4 - 0.0
24/08:45am 9.8 6.7 7.4 85 1.1 SW 13 19 7 10 1032.2 - 0.0
24/08:30am 9.7 6.2 7.4 85 1.1 SW 15 19 8 10 1032.1 - 0.0
24/08:15am 9.0 4.5 6.8 86 1.0 WSW 20 30 11 16 1032.0 - 0.0
24/08:00am 8.6 2.8 6.3 85 1.1 W 26 32 14 17 1031.8 - 0.0
24/07:45am 8.8 3.0 6.4 85 1.1 W 26 28 14 15 1031.7 - 0.0
24/07:30am 8.8 3.0 6.4 85 1.1 W 26 28 14 15 1031.5 - 0.0
24/07:15am 8.8 3.4 6.5 85 1.1 WSW 24 26 13 14 1031.3 - 0.0
24/07:00am 8.9 3.6 6.7 86 1.0 WSW 24 24 13 13 1031.2 - 0.0
24/06:45am 9.0 4.1 7.1 88 0.9 WSW 22 24 12 13 1031.2 - 0.0
24/06:30am 8.2 3.6 6.3 88 0.9 WSW 20 22 11 12 1031.2 - 0.0
24/06:15am 8.3 3.9 6.4 88 0.9 SW 19 20 10 11 1031.1 - 0.0
24/06:00am 8.2 3.6 6.3 88 0.9 SW 20 22 11 12 1030.9 - 0.0
24/05:45am 8.5 4.1 6.6 88 0.9 SW 19 22 10 12 1030.8 - 0.0
24/05:30am 9.3 4.2 7.7 90 0.8 WSW 24 28 13 15 1030.7 - 0.0
24/05:15am 9.3 3.9 8.1 92 0.6 WSW 26 28 14 15 1030.5 - 0.0
24/05:00am 8.8 4.1 7.6 92 0.6 WSW 22 24 12 13 1030.4 - 0.0
24/04:45am 8.9 4.6 7.9 93 0.5 SW 20 22 11 12 1030.4 - 0.0
24/04:30am 7.9 3.6 6.9 93 0.5 SW 19 22 10 12 1030.3 - 0.0
24/04:15am 7.2 3.1 6.1 93 0.5 SSW 17 19 9 10 1030.2 - 0.0
24/04:00am 6.9 3.5 5.8 93 0.5 SSW 13 17 7 9 1030.1 - 0.0
24/03:45am 6.9 3.1 5.8 93 0.5 SSW 15 17 8 9 1030.0 - 0.0
24/03:30am 6.9 3.5 5.8 93 0.5 SSW 13 15 7 8 1029.9 - 0.0
24/03:15am 6.9 3.5 5.8 93 0.5 SSW 13 13 7 7 1029.9 - 0.0
24/03:00am 7.0 3.6 5.9 93 0.5 SSW 13 15 7 8 1029.9 - 0.0
24/02:45am 6.8 3.4 5.7 93 0.5 SSW 13 15 7 8 1029.9 - 0.0
24/02:30am 6.8 3.3 5.6 92 0.5 SSW 13 15 7 8 1029.9 - 0.0
24/02:15am 6.8 3.3 5.6 92 0.5 S 13 15 7 8 1030.0 - 0.0
24/02:00am 7.0 3.6 5.7 91 0.6 SSW 13 15 7 8 1030.0 - 0.0
24/01:45am 7.0 3.6 5.7 91 0.6 S 13 15 7 8 1030.0 - 0.0
24/01:30am 7.0 3.6 5.7 91 0.6 S 13 17 7 9 1030.0 - 0.0
24/01:15am 7.1 4.1 5.8 91 0.6 S 11 15 6 8 1029.9 - 0.0
24/01:00am 7.6 4.7 6.3 91 0.6 S 11 15 6 8 1029.9 - 0.0
24/12:45am 7.7 4.4 6.4 91 0.6 S 13 17 7 9 1029.9 - 0.0
24/12:30am 7.5 3.8 6.2 91 0.6 S 15 17 8 9 1030.0 - 0.0
24/12:15am 7.5 3.7 6.0 90 0.7 S 15 17 8 9 1029.9 - 0.0
24/12:00am 7.9 4.2 6.5 91 0.6 S 15 19 8 10 1030.0 - 0.0
 
Date/Time
EST
Temp
°C
App
Temp
°C
Dew
Point
Rel
Hum
%
Delta-T
°C
Wind Press
QNH
hPa
Press
MSL
hPa
Rain
since 9 am
mm
Dir
 
Spd
km/h
Gust
km/h
Spd
kts
Gust
kts
23/11:45pm 7.8 4.5 6.5 91 0.6 S 13 17 7 9 1030.0 - 0.0
23/11:30pm 7.8 4.1 6.4 91 0.6 S 15 17 8 9 1030.0 - 0.0
23/11:15pm 8.0 4.3 6.5 90 0.7 S 15 17 8 9 1030.0 - 0.0
23/11:00pm 8.2 4.6 6.8 91 0.7 S 15 17 8 9 1030.0 - 0.0
23/10:45pm 8.1 4.5 6.7 91 0.7 S 15 17 8 9 1030.0 - 0.0
23/10:30pm 8.1 4.5 6.7 91 0.7 S 15 17 8 9 1030.0 - 0.0
23/10:15pm 8.2 5.0 6.8 91 0.7 S 13 17 7 9 1030.0 - 0.0
23/10:00pm 7.9 4.2 6.5 91 0.6 S 15 17 8 9 1030.1 - 0.0
23/09:45pm 7.7 4.0 6.1 90 0.7 S 15 17 8 9 1030.1 - 0.0
23/09:30pm 8.0 3.9 6.3 89 0.8 S 17 19 9 10 1030.1 - 0.0
23/09:15pm 8.3 4.3 6.5 88 0.8 S 17 19 9 10 1030.1 - 0.0
23/09:00pm 8.5 4.5 6.5 87 0.9 S 17 19 9 10 1030.1 - 0.0
23/08:45pm 9.0 5.0 6.8 86 1.0 S 17 19 9 10 1030.1 - 0.0
23/08:30pm 9.6 5.7 7.3 85 1.1 S 17 19 9 10 1030.1 - 0.0
23/08:15pm 9.8 5.9 7.3 84 1.2 S 17 19 9 10 1030.0 - 0.0
23/08:00pm 10.0 6.5 7.4 84 1.2 S 15 19 8 10 1029.9 - 0.0
23/07:45pm 10.3 7.3 7.7 84 1.3 SSE 13 15 7 8 1029.9 - 0.0
23/07:30pm 10.6 7.6 7.8 83 1.4 SSE 13 17 7 9 1029.8 - 0.0
23/07:15pm 10.7 7.7 7.8 82 1.4 SSE 13 15 7 8 1029.7 - 0.0
23/07:00pm 10.9 7.9 7.8 81 1.5 SSE 13 15 7 8 1029.7 - 0.0
23/06:45pm 11.1 8.1 7.9 81 1.6 SSE 13 17 7 9 1029.7 - 0.0
23/06:30pm 11.2 8.2 7.9 80 1.6 SSE 13 17 7 9 1029.6 - 0.0
23/06:15pm 11.2 8.2 7.9 80 1.6 SSE 13 15 7 8 1029.5 - 0.0
23/06:00pm 11.3 9.1 7.7 78 1.8 SSE 9 13 5 7 1029.4 - 0.0
23/05:45pm 11.7 9.1 7.7 76 2.0 SSE 11 13 6 7 1029.2 - 0.0
23/05:30pm 12.3 10.1 7.9 74 2.2 SSE 9 13 5 7 1029.2 - 0.0
23/05:15pm 12.9 10.4 8.2 73 2.3 SSE 11 15 6 8 1029.1 - 0.0
23/05:00pm 13.3 10.8 8.3 72 2.5 SSE 11 15 6 8 1029.0 - 0.0
23/04:45pm 13.9 11.4 8.4 69 2.8 SSE 11 17 6 9 1029.0 - 0.0
23/04:30pm 14.4 11.6 8.5 67 3.0 SSE 13 19 7 10 1029.0 - 0.0
23/04:15pm 14.8 11.6 8.4 65 3.2 SSE 15 19 8 10 1028.9 - 0.0
23/04:00pm 15.3 12.9 8.5 64 3.5 SSE 11 19 6 10 1028.9 - 0.0
23/03:45pm 15.6 13.5 8.3 62 3.7 SSE 9 17 5 9 1028.8 - 0.0
23/03:30pm 16.1 13.3 8.6 61 3.9 SSE 13 19 7 10 1028.6 - 0.0
23/03:15pm 16.3 14.2 8.4 59 4.0 S 9 15 5 8 1028.4 - 0.0
23/03:00pm 16.4 14.4 8.5 59 4.1 S 9 17 5 9 1028.4 - 0.0
23/02:45pm 16.6 13.8 8.7 59 4.1 S 13 20 7 11 1028.4 - 0.0
23/02:30pm 16.8 14.5 8.9 59 4.1 S 11 17 6 9 1028.4 - 0.0
23/02:15pm 16.5 13.7 8.5 59 4.1 S 13 22 7 12 1028.4 - 0.0
23/02:00pm 16.6 12.7 8.5 58 4.2 S 19 28 10 15 1028.3 - 0.0
23/01:45pm 16.8 13.8 9.1 60 4.0 S 15 22 8 12 1028.3 - 0.0
23/01:30pm 16.9 13.9 9.2 60 4.0 S 15 20 8 11 1028.4 - 0.0
23/01:15pm 16.9 13.9 9.4 61 3.9 S 15 24 8 13 1028.4 - 0.0
23/01:00pm 16.9 13.2 9.5 61 3.9 S 19 28 10 15 1028.4 - 0.0
23/12:45pm 16.8 13.2 9.9 64 3.7 S 19 28 10 15 1028.4 - 0.0
23/12:30pm 16.4 13.2 9.8 65 3.5 S 17 24 9 13 1028.5 - 0.0
23/12:15pm 16.1 12.4 9.4 64 3.5 SSE 19 30 10 16 1028.6 - 0.0
23/12:00pm 16.4 13.1 9.7 64 3.5 S 17 26 9 14 1028.7 - 0.0
23/11:45am 16.4 12.8 10.0 66 3.4 S 19 26 10 14 1028.9 - 0.0
23/11:30am 16.1 12.6 10.1 67 3.2 S 19 32 10 17 1029.0 - 0.0
23/11:15am 16.0 13.3 10.2 68 3.1 S 15 26 8 14 1029.2 - 0.0
23/11:00am 15.6 12.8 10.0 69 2.9 SSW 15 24 8 13 1029.4 - 0.0
23/10:45am 14.9 11.5 9.3 69 2.9 SSW 17 24 9 13 1029.5 - 0.0
23/10:30am 14.8 11.5 9.4 70 2.8 SSW 17 24 9 13 1029.6 - 0.0
23/10:15am 14.3 10.9 9.2 71 2.6 SSW 17 24 9 13 1029.6 - 0.0
23/10:00am 13.7 10.3 9.0 73 2.4 SSW 17 26 9 14 1029.6 - 0.0
23/09:45am 13.3 9.8 8.9 74 2.2 SW 17 26 9 14 1029.5 - 0.0
23/09:30am 12.4 8.4 8.3 76 2.0 SW 19 26 10 14 1029.5 - 0.0
23/09:15am 11.7 7.6 7.7 76 2.0 SW 19 26 10 14 1029.4 - 0.0
23/09:00am 11.3 7.1 7.5 77 1.8 SW 19 28 10 15 1029.4 - 21.8
23/08:45am 10.8 6.0 7.2 78 1.7 SW 22 32 12 17 1029.3 - 21.8
23/08:30am 10.3 5.4 7.1 80 1.5 SW 22 33 12 18 1029.1 - 21.8
23/08:15am 9.8 5.3 6.8 81 1.4 SW 20 32 11 17 1029.0 - 21.8
23/08:00am 9.2 4.2 6.4 83 1.3 SW 22 30 12 16 1028.8 - 21.8
23/07:45am 9.1 4.0 6.2 82 1.3 SW 22 28 12 15 1028.7 - 21.8
23/07:30am 9.2 4.5 6.2 81 1.4 SW 20 28 11 15 1028.6 - 21.8
23/07:15am 9.5 4.1 6.4 81 1.4 SW 24 33 13 18 1028.4 - 21.8
23/07:00am 9.7 4.0 6.7 81 1.4 SW 26 35 14 19 1028.3 - 21.8
23/06:45am 9.8 3.8 7.0 83 1.3 SW 28 33 15 18 1028.0 - 21.8
23/06:30am 9.6 3.6 7.1 84 1.2 SW 28 37 15 20 1027.8 - 21.8
23/06:15am 9.6 4.0 7.2 85 1.1 SW 26 33 14 18 1027.6 - 21.8
23/06:00am 9.6 4.4 7.4 86 1.1 SW 24 32 13 17 1027.4 - 21.8
23/05:45am 9.6 4.1 7.5 87 1.0 SW 26 32 14 17 1027.1 - 21.8
23/05:30am 9.5 4.7 7.5 87 1.0 SW 22 28 12 15 1027.0 - 21.8
23/05:15am 9.6 4.5 7.8 88 0.9 SW 24 30 13 16 1026.8 - 21.8
23/05:00am 9.8 5.2 8.1 89 0.8 SSW 22 32 12 17 1026.6 - 21.8
23/04:45am 9.8 5.8 8.2 90 0.8 SSW 19 26 10 14 1026.6 - 21.8
23/04:30am 9.9 6.3 8.4 90 0.7 SSW 17 28 9 15 1026.6 - 21.8
23/04:15am 10.0 5.9 8.7 92 0.6 SSW 20 28 11 15 1026.5 - 21.8
23/04:00am 10.1 6.0 8.8 92 0.6 SSW 20 28 11 15 1026.6 - 21.8
23/03:45am 10.1 6.1 9.0 93 0.5 SSW 20 28 11 15 1026.5 - 21.8
23/03:30am 10.5 6.8 9.4 93 0.6 SSW 19 26 10 14 1026.5 - 21.8
23/03:15am 10.5 6.6 9.6 94 0.5 SSW 20 28 11 15 1026.6 - 21.8
23/03:00am 10.6 7.0 9.7 94 0.5 SSW 19 24 10 13 1026.7 - 21.8
23/02:45am 10.6 7.0 9.7 94 0.5 SSW 19 26 10 14 1026.8 - 21.8
23/02:30am 10.6 7.0 9.7 94 0.5 SSW 19 26 10 14 1026.8 - 21.8
23/02:15am 10.6 7.0 9.7 94 0.5 SSW 19 28 10 15 1027.0 - 21.8
23/02:00am 10.6 7.0 9.7 94 0.5 SSW 19 24 10 13 1027.0 - 21.8
23/01:45am 10.7 7.1 9.9 95 0.4 SSW 19 28 10 15 1027.0 - 21.8
23/01:30am 10.8 7.6 9.9 94 0.5 SSW 17 28 9 15 1027.1 - 21.8
23/01:15am 10.9 6.8 10.0 94 0.5 SSW 22 33 12 18 1027.0 - 21.6
23/01:00am 11.0 6.5 10.1 94 0.5 S 24 39 13 21 1026.8 - 21.4
23/12:45am 11.3 6.1 10.4 94 0.5 S 28 39 15 21 1026.8 - 21.2
23/12:30am 11.3 7.9 10.4 94 0.5 S 19 32 10 17 1026.7 - 21.2
23/12:15am 11.1 7.6 10.1 94 0.5 S 19 28 10 15 1026.6 - 21.1
23/12:00am 11.0 8.6 10.1 94 0.5 SSW 13 26 7 14 1026.6 - 20.9
 
Date/Time
EST
Temp
°C
App
Temp
°C
Dew
Point
Rel
Hum
%
Delta-T
°C
Wind Press
QNH
hPa
Press
MSL
hPa
Rain
since 9 am
mm
Dir
 
Spd
km/h
Gust
km/h
Spd
kts
Gust
kts
22/11:45pm 10.6 7.7 9.7 94 0.5 SSW 15 22 8 12 1026.7 - 20.5
22/11:30pm 10.6 7.3 9.6 93 0.5 SW 17 20 9 11 1026.6 - 20.5
22/11:15pm 10.6 7.7 9.7 94 0.5 SW 15 28 8 15 1026.6 - 20.5
22/11:00pm 10.5 7.6 9.5 93 0.5 SW 15 24 8 13 1026.7 - 20.5
22/10:45pm 10.4 7.1 9.5 94 0.5 SW 17 26 9 14 1026.5 - 20.3
22/10:30pm 10.7 6.5 9.7 93 0.5 WSW 22 28 12 15 1026.1 - 20.3
22/10:15pm 10.7 7.1 9.8 94 0.5 SW 19 24 10 13 1026.4 - 20.3
22/10:00pm 10.8 7.9 9.8 93 0.5 SW 15 19 8 10 1026.3 - 20.3
22/09:45pm 10.9 8.5 9.9 93 0.5 SW 13 19 7 10 1026.3 - 20.2
22/09:30pm 10.9 8.8 9.9 93 0.5 SSW 11 17 6 9 1026.2 - 20.2
22/09:15pm 11.0 8.9 9.9 93 0.6 SW 11 17 6 9 1026.2 - 19.8
22/09:00pm 11.1 8.3 10.0 93 0.6 SW 15 24 8 13 1026.1 - 19.6
22/08:45pm 11.2 7.7 10.1 93 0.6 SSW 19 33 10 18 1026.0 - 19.4
22/08:30pm 11.2 7.5 10.1 93 0.6 SSW 20 32 11 17 1025.8 - 19.3
22/08:15pm 11.2 7.5 10.1 93 0.6 S 20 35 11 19 1025.9 - 19.1
22/08:00pm 11.3 7.6 10.2 93 0.6 SSW 20 30 11 16 1025.7 - 18.7
22/07:45pm 11.3 7.6 10.1 92 0.6 SSW 20 28 11 15 1025.4 - 18.4
22/07:30pm 11.3 7.6 10.1 92 0.6 SSW 20 35 11 19 1025.4 - 18.2
22/07:15pm 11.3 7.8 10.1 92 0.6 S 19 26 10 14 1025.2 - 17.6
22/07:00pm 11.3 8.1 10.0 92 0.7 S 17 32 9 17 1025.0 - 16.9
22/06:45pm 11.4 7.9 10.1 92 0.7 SSW 19 33 10 18 1024.7 - 16.2
22/06:30pm 11.4 7.7 10.1 92 0.7 SSW 20 30 11 16 1024.4 - 15.8
22/06:15pm 11.4 6.9 10.2 92 0.6 SSW 24 43 13 23 1024.2 - 15.8
22/06:00pm 11.3 7.2 10.0 92 0.7 S 22 39 12 21 1024.2 - 15.5
22/05:45pm 11.3 7.7 10.0 92 0.7 SSW 19 26 10 14 1023.9 - 14.9
22/05:30pm 11.3 6.4 9.9 91 0.7 S 26 46 14 25 1023.6 - 14.6
22/05:15pm 11.6 6.7 10.1 90 0.8 S 26 43 14 23 1023.6 - 13.9
22/05:00pm 11.8 7.8 10.3 90 0.8 S 22 39 12 21 1023.1 - 13.0
22/04:45pm 11.8 7.4 10.3 90 0.8 S 24 37 13 20 1022.8 - 12.8
22/04:30pm 11.9 6.7 10.2 89 0.9 S 28 52 15 28 1022.6 - 12.4
22/04:15pm 12.1 8.0 10.2 88 1.0 S 22 37 12 20 1022.4 - 12.2
22/04:00pm 12.3 8.2 10.1 86 1.1 SSW 22 37 12 20 1022.2 - 11.9
22/03:45pm 12.7 8.2 10.1 84 1.3 S 24 44 13 24 1021.8 - 11.3
22/03:30pm 13.2 7.5 9.9 80 1.7 S 30 46 16 25 1021.6 - 11.2
22/03:15pm 14.5 8.5 10.1 75 2.3 S 32 56 17 30 1021.3 - 11.2
22/03:00pm 14.6 8.0 9.9 73 2.5 S 35 57 19 31 1021.1 - 11.2
22/02:45pm 15.3 7.5 9.9 70 2.8 S 41 65 22 35 1020.7 - 11.2
22/02:30pm 15.0 9.0 10.7 75 2.3 SSE 33 63 18 34 1020.5 - 11.2
22/02:15pm 14.6 8.6 10.8 78 2.0 S 33 56 18 30 1020.4 - 11.2
22/02:00pm 14.5 8.2 11.0 79 1.9 S 35 57 19 31 1020.2 - 11.2
22/01:45pm 14.5 7.5 11.2 80 1.8 S 39 65 21 35 1020.2 - 11.2
22/01:30pm 14.4 7.5 11.5 83 1.6 S 39 65 21 35 1020.0 - 11.2
22/01:15pm 14.0 7.8 11.5 85 1.3 S 35 57 19 31 1020.0 - 11.2
22/01:00pm 13.5 6.8 11.1 85 1.3 S 37 56 20 30 1019.8 - 11.2
22/12:45pm 14.1 7.6 11.8 86 1.2 S 37 59 20 32 1019.6 - 11.2
22/12:30pm 13.8 8.3 11.9 88 1.0 S 32 56 17 30 1019.5 - 11.2
22/12:15pm 13.2 5.8 11.3 88 1.0 S 41 70 22 38 1019.4 - 11.2
22/12:00pm 13.8 8.1 11.9 88 1.0 S 33 54 18 29 1019.3 - 11.0
22/11:45am 13.7 8.9 11.6 87 1.1 S 28 50 15 27 1019.2 - 11.0
22/11:30am 14.7 8.1 12.5 87 1.2 S 39 65 21 35 1019.1 - 10.8
22/11:15am 14.6 7.3 12.8 89 1.0 SSE 43 65 23 35 1019.0 - 10.8
22/11:00am 14.4 7.5 12.9 91 0.8 SSE 41 70 22 38 1018.8 - 10.8
22/10:45am 14.2 7.0 13.0 92 0.7 SSE 43 74 23 40 1018.6 - 10.8
22/10:30am 14.0 7.9 12.9 93 0.6 SSE 37 54 20 29 1018.5 - 10.6
22/10:15am 13.6 8.3 12.5 93 0.6 S 32 50 17 27 1018.5 - 10.3
22/10:00am 13.4 9.2 12.3 93 0.6 SSE 26 48 14 26 1018.5 - 7.0
22/09:45am 13.7 10.3 12.6 93 0.6 SSE 22 43 12 23 1018.3 - 4.0
22/09:30am 13.8 10.5 12.7 93 0.6 SSE 22 44 12 24 1018.1 - 2.0
22/09:15am 13.6 10.6 12.4 92 0.7 SSE 20 33 11 18 1017.8 - 1.3
22/09:00am 13.8 9.7 12.7 93 0.6 SSE 26 37 14 20 1017.8 - 12.2
22/08:45am 13.8 10.1 12.7 93 0.6 SSE 24 41 13 22 1017.6 - 9.9
22/08:30am 13.5 10.6 12.4 93 0.6 S 19 32 10 17 1017.4 - 9.5
22/08:15am 13.5 10.1 12.4 93 0.6 S 22 43 12 23 1017.1 - 7.6
22/08:00am 13.3 9.4 12.2 93 0.6 S 24 43 13 23 1017.1 - 6.5
22/07:45am 12.8 9.5 11.6 92 0.6 S 20 39 11 21 1017.0 - 5.8
22/07:30am 12.3 7.7 11.1 92 0.6 S 26 48 14 26 1016.8 - 5.2
22/07:15am 11.9 8.3 10.6 92 0.7 SSW 20 30 11 16 1016.6 - 3.6
22/07:00am 11.8 8.3 10.3 90 0.8 SSW 19 32 10 17 1016.5 - 3.4
22/06:45am 11.8 8.1 10.3 90 0.8 SW 20 30 11 16 1016.3 - 3.1
22/06:30am 11.9 8.4 10.2 89 0.9 SSW 19 26 10 14 1016.3 - 2.0
22/06:15am 12.1 9.3 10.1 87 1.0 SSW 15 22 8 12 1016.3 - 1.3
22/06:00am 12.5 8.9 10.0 85 1.3 SSW 19 32 10 17 1016.0 - 0.4
22/05:45am 13.4 9.8 10.6 83 1.5 SSW 20 30 11 16 1015.9 - 0.0
22/05:30am 13.4 9.5 10.8 84 1.4 SSW 22 35 12 19 1015.7 - 0.0
22/05:15am 13.1 9.2 10.8 86 1.2 SSW 22 37 12 20 1015.5 - 0.0
22/05:00am 12.4 8.7 10.2 86 1.1 SSW 20 33 11 18 1015.6 - 0.0
22/04:45am 12.0 7.8 9.8 86 1.1 SW 22 28 12 15 1015.8 - 0.0
22/04:30am 11.8 7.2 9.6 86 1.1 SW 24 30 13 16 1015.8 - 0.0
22/04:15am 11.7 7.8 9.4 86 1.2 SW 20 24 11 13 1015.9 - 0.0
22/04:00am 11.5 7.6 9.3 86 1.1 SW 20 28 11 15 1015.8 - 0.0
22/03:45am 11.4 7.0 9.1 86 1.2 SW 22 26 12 14 1015.8 - 0.0
22/03:30am 11.3 6.9 9.0 86 1.2 SW 22 26 12 14 1015.9 - 0.0
22/03:15am 11.3 6.9 9.0 86 1.2 SW 22 24 12 13 1016.0 - 0.0
22/03:00am 11.3 7.3 9.0 86 1.2 SW 20 24 11 13 1016.2 - 0.0
22/02:45am 11.3 7.3 9.1 86 1.1 SW 20 24 11 13 1016.3 - 0.0
22/02:30am 11.3 7.5 9.0 86 1.2 SW 19 22 10 12 1016.4 - 0.0
22/02:15am 11.3 7.5 9.2 87 1.1 SW 19 22 10 12 1016.5 - 0.0
22/02:00am 11.2 7.4 9.1 87 1.1 SW 19 22 10 12 1016.5 - 0.0
22/01:45am 11.0 7.5 8.9 87 1.0 SW 17 20 9 11 1016.5 - 0.0
22/01:30am 11.2 7.8 9.0 86 1.1 SW 17 22 9 12 1016.6 - 0.0
22/01:15am 11.5 8.1 9.3 86 1.1 SW 17 20 9 11 1016.7 - 0.0
22/01:00am 11.7 8.7 9.4 86 1.2 SW 15 20 8 11 1016.8 - 0.0
22/12:45am 11.7 8.4 9.5 86 1.1 SSW 17 26 9 14 1016.9 - 0.0
22/12:30am 11.9 9.0 9.6 86 1.2 SW 15 20 8 11 1017.1 - 0.0
22/12:15am 12.0 9.4 9.5 85 1.3 SSW 13 17 7 9 1017.3 - 0.0
22/12:00am 12.1 9.2 9.7 85 1.2 SSW 15 22 8 12 1017.1 - 0.0
 
Date/Time
EST
Temp
°C
App
Temp
°C
Dew
Point
Rel
Hum
%
Delta-T
°C
Wind Press
QNH
hPa
Press
MSL
hPa
Rain
since 9 am
mm
Dir
 
Spd
km/h
Gust
km/h
Spd
kts
Gust
kts
21/11:45pm 12.0 8.1 9.6 85 1.2 SSW 20 24 11 13 1017.2 - 0.0
21/11:30pm 12.1 8.2 9.6 85 1.3 SW 20 24 11 13 1017.3 - 0.0
21/11:15pm 12.3 8.5 9.7 84 1.3 SW 20 26 11 14 1017.3 - 0.0
21/11:00pm 12.5 8.3 9.6 82 1.5 SW 22 28 12 15 1017.3 - 0.0
21/10:45pm 13.1 8.9 9.7 80 1.8 SW 22 28 12 15 1017.6 - 0.0
21/10:30pm 13.8 10.3 10.1 78 1.9 SSW 19 24 10 13 1017.8 - 0.0
21/10:15pm 13.9 11.1 10.1 78 2.0 SSW 15 26 8 14 1017.9 - 0.0
21/10:00pm 14.1 10.7 10.4 78 1.9 S 19 28 10 15 1017.9 - 0.0
21/09:45pm 14.2 10.3 10.8 80 1.8 S 22 33 12 18 1017.7 - 0.0
21/09:30pm 14.4 10.2 11.1 80 1.8 S 24 37 13 20 1017.8 - 0.0
21/09:15pm 14.5 10.7 11.3 81 1.7 S 22 39 12 21 1017.9 - 0.0
21/09:00pm 14.5 11.4 11.5 82 1.6 S 19 32 10 17 1018.1 - 0.0
21/08:45pm 14.6 11.5 11.7 83 1.6 S 19 33 10 18 1018.1 - 0.0
21/08:30pm 14.7 11.6 11.7 82 1.6 S 19 32 10 17 1018.0 - 0.0
21/08:15pm 14.9 12.3 11.9 82 1.6 S 17 24 9 13 1018.1 - 0.0
21/08:00pm 15.0 12.0 12.1 83 1.6 SSE 19 32 10 17 1018.2 - 0.0
21/07:45pm 15.0 12.5 12.2 83 1.5 S 17 28 9 15 1018.2 - 0.0
21/07:30pm 15.1 13.4 12.3 83 1.5 S 13 22 7 12 1018.3 - 0.0
21/07:15pm 15.1 12.2 12.4 84 1.5 SSE 19 28 10 15 1018.3 - 0.0
21/07:00pm 14.9 12.4 12.2 84 1.5 S 17 24 9 13 1018.3 - 0.0
21/06:45pm 14.8 12.6 12.0 83 1.5 S 15 24 8 13 1017.9 - 0.0
21/06:30pm 14.9 11.9 12.1 83 1.5 S 19 32 10 17 1018.0 - 0.0
21/06:15pm 15.0 12.0 12.1 83 1.6 S 19 30 10 16 1017.9 - 0.0
21/06:00pm 15.0 12.0 12.1 83 1.6 S 19 32 10 17 1017.8 - 0.0
21/05:45pm 15.2 12.2 12.0 81 1.7 S 19 26 10 14 1017.7 - 0.0
21/05:30pm 15.3 12.7 11.9 80 1.9 S 17 24 9 13 1017.7 - 0.0
21/05:15pm 15.5 13.6 11.9 79 2.0 S 13 19 7 10 1017.5 - 0.0
21/05:00pm 15.8 13.6 12.0 78 2.1 S 15 22 8 12 1017.5 - 0.0
21/04:45pm 16.1 13.9 12.1 77 2.2 SSE 15 22 8 12 1017.4 - 0.0
21/04:30pm 16.4 15.1 12.4 77 2.2 S 11 20 6 11 1017.4 - 0.0
21/04:15pm 16.5 15.2 12.4 77 2.3 S 11 17 6 9 1017.5 - 0.0
21/04:00pm 16.7 15.4 12.5 76 2.3 SSE 11 17 6 9 1017.4 - 0.0
21/03:45pm 16.9 15.6 12.5 75 2.4 SSE 11 19 6 10 1017.3 - 0.0

Other Formats:

Comma delimited format used in spreadsheet applications
http://www.bom.gov.au/fwo/IDN60801/IDN60801.95757.axf

JavaScript Object Notation format (JSON) in row-major order
http://www.bom.gov.au/fwo/IDN60801/IDN60801.95757.json